sensor_id;sensor_type;location;lat;lon;timestamp;pressure;altitude;pressure_sealevel;temperature;humidity
9695;BME280;4690;52.422;13.486;2023-03-25T00:05:18;100052.00;;;9.49;89.10
9695;BME280;4690;52.422;13.486;2023-03-25T00:07:48;100058.44;;;9.42;88.46
9695;BME280;4690;52.422;13.486;2023-03-25T00:10:14;100057.34;;;9.32;88.80
9695;BME280;4690;52.422;13.486;2023-03-25T00:12:40;100051.38;;;9.23;89.24
9695;BME280;4690;52.422;13.486;2023-03-25T00:15:08;100047.88;;;9.46;89.26
9695;BME280;4690;52.422;13.486;2023-03-25T00:17:35;100044.28;;;9.46;88.17
9695;BME280;4690;52.422;13.486;2023-03-25T00:20:05;100040.25;;;9.48;87.71
9695;BME280;4690;52.422;13.486;2023-03-25T00:22:33;100035.97;;;9.52;87.70
9695;BME280;4690;52.422;13.486;2023-03-25T00:25:09;100030.50;;;9.52;87.14
9695;BME280;4690;52.422;13.486;2023-03-25T00:27:35;100037.41;;;9.55;87.54
9695;BME280;4690;52.422;13.486;2023-03-25T00:30:01;100035.03;;;9.58;86.94
9695;BME280;4690;52.422;13.486;2023-03-25T00:32:27;100046.91;;;9.64;86.66
9695;BME280;4690;52.422;13.486;2023-03-25T00:34:54;100039.31;;;9.78;86.29
9695;BME280;4690;52.422;13.486;2023-03-25T00:37:20;100040.47;;;9.82;85.92
9695;BME280;4690;52.422;13.486;2023-03-25T00:39:47;100041.06;;;9.84;85.79
9695;BME280;4690;52.422;13.486;2023-03-25T00:42:17;100043.09;;;9.77;85.76
9695;BME280;4690;52.422;13.486;2023-03-25T00:44:51;100055.13;;;9.64;86.05
9695;BME280;4690;52.422;13.486;2023-03-25T00:47:17;100045.59;;;9.67;86.47
9695;BME280;4690;52.422;13.486;2023-03-25T00:49:45;100040.00;;;9.61;86.16
9695;BME280;4690;52.422;13.486;2023-03-25T00:52:11;100040.38;;;9.53;87.09
9695;BME280;4690;52.422;13.486;2023-03-25T00:54:37;100039.41;;;9.71;86.39
9695;BME280;4690;52.422;13.486;2023-03-25T00:57:03;100048.00;;;9.63;86.33
9695;BME280;4690;52.422;13.486;2023-03-25T00:59:29;100047.72;;;9.76;86.32
9695;BME280;4690;52.422;13.486;2023-03-25T01:01:55;100044.75;;;9.90;85.60
9695;BME280;4690;52.422;13.486;2023-03-25T01:04:23;100055.84;;;9.83;85.19
9695;BME280;4690;52.422;13.486;2023-03-25T01:06:49;100041.19;;;9.65;85.73
9695;BME280;4690;52.422;13.486;2023-03-25T01:09:19;100049.66;;;9.52;86.40
9695;BME280;4690;52.422;13.486;2023-03-25T01:11:47;100047.41;;;9.49;87.02
9695;BME280;4690;52.422;13.486;2023-03-25T01:14:19;100044.06;;;9.47;87.37
9695;BME280;4690;52.422;13.486;2023-03-25T01:16:46;100048.69;;;9.58;86.87
9695;BME280;4690;52.422;13.486;2023-03-25T01:19:13;100051.19;;;9.60;86.39
9695;BME280;4690;52.422;13.486;2023-03-25T01:21:39;100049.66;;;9.64;86.79
9695;BME280;4690;52.422;13.486;2023-03-25T01:24:07;100041.44;;;9.76;86.08
9695;BME280;4690;52.422;13.486;2023-03-25T01:26:33;100037.75;;;9.70;85.56
9695;BME280;4690;52.422;13.486;2023-03-25T01:28:59;100030.84;;;9.68;85.71
9695;BME280;4690;52.422;13.486;2023-03-25T01:31:25;100026.47;;;9.67;86.02
9695;BME280;4690;52.422;13.486;2023-03-25T01:33:55;100026.69;;;9.53;86.20
9695;BME280;4690;52.422;13.486;2023-03-25T01:36:23;100011.59;;;9.39;86.96
9695;BME280;4690;52.422;13.486;2023-03-25T01:38:50;100019.91;;;9.44;87.52
9695;BME280;4690;52.422;13.486;2023-03-25T01:41:16;100015.63;;;9.60;86.67
9695;BME280;4690;52.422;13.486;2023-03-25T01:44:00;100017.66;;;9.53;86.13
9695;BME280;4690;52.422;13.486;2023-03-25T01:46:26;100007.06;;;9.45;86.36
9695;BME280;4690;52.422;13.486;2023-03-25T01:48:52;100005.50;;;9.49;86.96
9695;BME280;4690;52.422;13.486;2023-03-25T01:51:25;100002.31;;;9.52;86.38
9695;BME280;4690;52.422;13.486;2023-03-25T01:53:52;100007.41;;;9.60;85.97
9695;BME280;4690;52.422;13.486;2023-03-25T01:56:24;100006.72;;;9.64;85.56
9695;BME280;4690;52.422;13.486;2023-03-25T01:58:52;100016.44;;;9.49;85.72
9695;BME280;4690;52.422;13.486;2023-03-25T02:01:19;100013.28;;;9.52;85.70
9695;BME280;4690;52.422;13.486;2023-03-25T02:03:50;100008.63;;;9.52;85.86
9695;BME280;4690;52.422;13.486;2023-03-25T02:06:27;100005.63;;;9.65;85.11
9695;BME280;4690;52.422;13.486;2023-03-25T02:08:57;100003.00;;;9.71;84.96
9695;BME280;4690;52.422;13.486;2023-03-25T02:11:25;99998.63;;;9.70;84.95
9695;BME280;4690;52.422;13.486;2023-03-25T02:13:56;99989.47;;;9.64;85.04
9695;BME280;4690;52.422;13.486;2023-03-25T02:25:34;99969.47;;;9.75;84.62
9695;BME280;4690;52.422;13.486;2023-03-25T02:31:55;99957.59;;;9.70;85.47
9695;BME280;4690;52.422;13.486;2023-03-25T02:40:12;99959.69;;;9.79;85.80
9695;BME280;4690;52.422;13.486;2023-03-25T02:43:11;99956.84;;;9.86;85.91
9695;BME280;4690;52.422;13.486;2023-03-25T02:45:46;99955.72;;;9.99;85.26
9695;BME280;4690;52.422;13.486;2023-03-25T02:48:29;99946.09;;;9.96;85.13
9695;BME280;4690;52.422;13.486;2023-03-25T02:51:05;99942.78;;;9.94;85.23
9695;BME280;4690;52.422;13.486;2023-03-25T02:53:36;99933.09;;;10.03;85.24
9695;BME280;4690;52.422;13.486;2023-03-25T02:56:09;99938.19;;;10.12;85.01
9695;BME280;4690;52.422;13.486;2023-03-25T02:58:39;99934.72;;;10.16;84.49
9695;BME280;4690;52.422;13.486;2023-03-25T03:01:06;99935.03;;;10.03;84.81
9695;BME280;4690;52.422;13.486;2023-03-25T03:03:35;99933.72;;;9.94;85.54
9695;BME280;4690;52.422;13.486;2023-03-25T03:06:03;99929.66;;;9.96;85.54
9695;BME280;4690;52.422;13.486;2023-03-25T03:11:30;99928.25;;;9.94;85.38
9695;BME280;4690;52.422;13.486;2023-03-25T03:14:30;99936.66;;;10.04;85.25
9695;BME280;4690;52.422;13.486;2023-03-25T03:17:50;99933.63;;;9.88;85.48
9695;BME280;4690;52.422;13.486;2023-03-25T03:23:08;99932.69;;;9.83;86.21
9695;BME280;4690;52.422;13.486;2023-03-25T03:25:49;99935.06;;;9.91;86.14
9695;BME280;4690;52.422;13.486;2023-03-25T03:28:42;99941.50;;;9.73;87.43
9695;BME280;4690;52.422;13.486;2023-03-25T03:31:24;99943.28;;;9.91;86.83
9695;BME280;4690;52.422;13.486;2023-03-25T03:33:58;99947.16;;;9.95;86.95
9695;BME280;4690;52.422;13.486;2023-03-25T03:36:37;99940.50;;;10.03;86.75
9695;BME280;4690;52.422;13.486;2023-03-25T03:41:52;99961.91;;;10.06;87.02
9695;BME280;4690;52.422;13.486;2023-03-25T03:44:26;99953.81;;;9.99;87.48
9695;BME280;4690;52.422;13.486;2023-03-25T03:47:04;99947.88;;;10.02;87.97
9695;BME280;4690;52.422;13.486;2023-03-25T03:49:38;99949.75;;;10.14;87.78
9695;BME280;4690;52.422;13.486;2023-03-25T03:54:54;99954.59;;;9.83;91.12
9695;BME280;4690;52.422;13.486;2023-03-25T03:57:41;99952.31;;;9.92;92.33
9695;BME280;4690;52.422;13.486;2023-03-25T04:00:18;99951.47;;;9.91;93.50
9695;BME280;4690;52.422;13.486;2023-03-25T04:03:00;99939.22;;;9.82;94.00
9695;BME280;4690;52.422;13.486;2023-03-25T04:05:30;99947.06;;;9.90;94.73
9695;BME280;4690;52.422;13.486;2023-03-25T04:08:17;99945.53;;;9.94;94.45
9695;BME280;4690;52.422;13.486;2023-03-25T04:10:54;99951.94;;;10.00;94.11
9695;BME280;4690;52.422;13.486;2023-03-25T04:13:32;99949.69;;;9.97;94.18
9695;BME280;4690;52.422;13.486;2023-03-25T04:16:00;99951.13;;;9.76;94.96
9695;BME280;4690;52.422;13.486;2023-03-25T04:18:26;99954.34;;;9.84;95.83
9695;BME280;4690;52.422;13.486;2023-03-25T04:20:54;99959.31;;;9.87;95.26
9695;BME280;4690;52.422;13.486;2023-03-25T04:23:20;99952.78;;;9.88;95.58
9695;BME280;4690;52.422;13.486;2023-03-25T04:25:46;99954.66;;;9.88;95.27
9695;BME280;4690;52.422;13.486;2023-03-25T04:28:18;99954.13;;;9.74;95.67
9695;BME280;4690;52.422;13.486;2023-03-25T04:30:45;99956.72;;;9.81;96.31
9695;BME280;4690;52.422;13.486;2023-03-25T04:33:13;99949.59;;;9.80;96.13
9695;BME280;4690;52.422;13.486;2023-03-25T04:35:39;99960.63;;;9.85;96.07
9695;BME280;4690;52.422;13.486;2023-03-25T04:38:06;99955.91;;;9.80;95.92
9695;BME280;4690;52.422;13.486;2023-03-25T04:40:32;99946.75;;;9.75;95.91
9695;BME280;4690;52.422;13.486;2023-03-25T04:42:58;99956.41;;;9.54;96.95
9695;BME280;4690;52.422;13.486;2023-03-25T04:45:25;99947.59;;;9.63;97.26
9695;BME280;4690;52.422;13.486;2023-03-25T04:47:53;99961.50;;;9.62;97.15
9695;BME280;4690;52.422;13.486;2023-03-25T04:50:28;99957.94;;;9.61;97.16
9695;BME280;4690;52.422;13.486;2023-03-25T04:52:55;99947.84;;;9.62;96.92
9695;BME280;4690;52.422;13.486;2023-03-25T04:55:27;99955.78;;;9.75;96.97
9695;BME280;4690;52.422;13.486;2023-03-25T04:57:54;99948.56;;;9.34;97.04
9695;BME280;4690;52.422;13.486;2023-03-25T05:00:23;99947.03;;;9.38;98.01
9695;BME280;4690;52.422;13.486;2023-03-25T05:02:53;99946.94;;;9.33;97.76
9695;BME280;4690;52.422;13.486;2023-03-25T05:05:24;99948.56;;;9.46;96.94
9695;BME280;4690;52.422;13.486;2023-03-25T05:07:53;99945.50;;;9.30;97.72
9695;BME280;4690;52.422;13.486;2023-03-25T05:10:23;99951.44;;;9.39;97.46
9695;BME280;4690;52.422;13.486;2023-03-25T05:12:50;99950.72;;;9.20;97.78
9695;BME280;4690;52.422;13.486;2023-03-25T05:15:22;99944.69;;;9.18;97.37
9695;BME280;4690;52.422;13.486;2023-03-25T05:17:48;99938.72;;;9.21;96.61
9695;BME280;4690;52.422;13.486;2023-03-25T05:20:14;99947.28;;;9.25;96.26
9695;BME280;4690;52.422;13.486;2023-03-25T05:22:41;99944.56;;;9.13;96.58
9695;BME280;4690;52.422;13.486;2023-03-25T05:25:09;99942.63;;;9.02;96.93
9695;BME280;4690;52.422;13.486;2023-03-25T05:27:36;99938.13;;;9.19;97.31
9695;BME280;4690;52.422;13.486;2023-03-25T05:30:04;99943.94;;;9.23;96.33
9695;BME280;4690;52.422;13.486;2023-03-25T05:32:30;99938.00;;;9.02;96.56
9695;BME280;4690;52.422;13.486;2023-03-25T05:35:00;99929.56;;;9.27;96.57
9695;BME280;4690;52.422;13.486;2023-03-25T05:37:27;99935.88;;;9.28;96.11
9695;BME280;4690;52.422;13.486;2023-03-25T05:39:53;99928.97;;;9.25;95.36
9695;BME280;4690;52.422;13.486;2023-03-25T05:42:19;99940.16;;;9.24;95.15
9695;BME280;4690;52.422;13.486;2023-03-25T05:44:52;99937.16;;;9.25;95.16
9695;BME280;4690;52.422;13.486;2023-03-25T05:47:23;99947.03;;;9.26;95.28
9695;BME280;4690;52.422;13.486;2023-03-25T05:49:51;99948.91;;;9.37;95.71
9695;BME280;4690;52.422;13.486;2023-03-25T05:52:18;99952.47;;;9.61;94.72
9695;BME280;4690;52.422;13.486;2023-03-25T05:54:46;99957.09;;;9.73;92.69
9695;BME280;4690;52.422;13.486;2023-03-25T05:57:16;99960.81;;;9.67;93.55
9695;BME280;4690;52.422;13.486;2023-03-25T05:59:42;99967.41;;;9.82;92.74
9695;BME280;4690;52.422;13.486;2023-03-25T06:02:13;99967.31;;;9.65;91.77
9695;BME280;4690;52.422;13.486;2023-03-25T06:04:39;99969.59;;;9.69;92.71
9695;BME280;4690;52.422;13.486;2023-03-25T06:07:10;99962.88;;;9.88;91.82
9695;BME280;4690;52.422;13.486;2023-03-25T06:09:48;99976.72;;;9.70;92.09
9695;BME280;4690;52.422;13.486;2023-03-25T06:12:16;99975.44;;;9.60;91.99
9695;BME280;4690;52.422;13.486;2023-03-25T06:14:45;99984.81;;;9.76;91.40
9695;BME280;4690;52.422;13.486;2023-03-25T06:17:15;99980.75;;;9.79;91.87
9695;BME280;4690;52.422;13.486;2023-03-25T06:19:43;99976.22;;;9.84;91.10
9695;BME280;4690;52.422;13.486;2023-03-25T06:22:10;99981.22;;;9.87;89.21
9695;BME280;4690;52.422;13.486;2023-03-25T06:24:38;99984.66;;;9.95;87.18
9695;BME280;4690;52.422;13.486;2023-03-25T06:27:07;99982.88;;;10.00;86.38
9695;BME280;4690;52.422;13.486;2023-03-25T06:29:35;99990.69;;;10.08;85.49
9695;BME280;4690;52.422;13.486;2023-03-25T06:32:06;99993.13;;;10.22;85.18
9695;BME280;4690;52.422;13.486;2023-03-25T06:34:33;99993.19;;;10.10;85.13
9695;BME280;4690;52.422;13.486;2023-03-25T06:37:02;99986.50;;;10.18;85.09
9695;BME280;4690;52.422;13.486;2023-03-25T06:39:29;99988.75;;;10.21;84.82
9695;BME280;4690;52.422;13.486;2023-03-25T06:41:59;99986.81;;;10.33;84.86
9695;BME280;4690;52.422;13.486;2023-03-25T06:44:26;99993.56;;;10.14;85.39
9695;BME280;4690;52.422;13.486;2023-03-25T06:46:53;99989.13;;;10.13;85.09
9695;BME280;4690;52.422;13.486;2023-03-25T06:49:19;99987.09;;;10.20;85.41
9695;BME280;4690;52.422;13.486;2023-03-25T06:51:44;99982.47;;;10.49;84.53
9695;BME280;4690;52.422;13.486;2023-03-25T06:54:10;99978.75;;;10.55;83.69
9695;BME280;4690;52.422;13.486;2023-03-25T06:56:36;99986.38;;;10.53;82.90
9695;BME280;4690;52.422;13.486;2023-03-25T06:59:02;99980.03;;;10.24;83.29
9695;BME280;4690;52.422;13.486;2023-03-25T07:01:28;99974.59;;;10.52;83.53
9695;BME280;4690;52.422;13.486;2023-03-25T07:03:54;99975.56;;;10.46;83.07
9695;BME280;4690;52.422;13.486;2023-03-25T07:06:22;99971.88;;;10.69;81.85
9695;BME280;4690;52.422;13.486;2023-03-25T07:08:48;99981.84;;;10.75;81.91
9695;BME280;4690;52.422;13.486;2023-03-25T07:11:19;99980.47;;;10.73;81.46
9695;BME280;4690;52.422;13.486;2023-03-25T07:13:46;99987.81;;;10.72;81.18
9695;BME280;4690;52.422;13.486;2023-03-25T07:16:12;99989.47;;;11.02;81.89
9695;BME280;4690;52.422;13.486;2023-03-25T07:18:38;99989.09;;;11.66;78.18
9695;BME280;4690;52.422;13.486;2023-03-25T07:21:04;99993.69;;;12.70;75.55
9695;BME280;4690;52.422;13.486;2023-03-25T07:23:30;99995.47;;;13.46;72.54
9695;BME280;4690;52.422;13.486;2023-03-25T07:25:56;100000.19;;;14.03;68.00
9695;BME280;4690;52.422;13.486;2023-03-25T07:28:22;99978.13;;;14.92;65.21
9695;BME280;4690;52.422;13.486;2023-03-25T07:30:48;99996.63;;;15.58;60.25
9695;BME280;4690;52.422;13.486;2023-03-25T07:33:14;99995.78;;;15.73;60.02
9695;BME280;4690;52.422;13.486;2023-03-25T07:35:40;99988.31;;;15.73;58.46
9695;BME280;4690;52.422;13.486;2023-03-25T07:38:06;99994.41;;;14.83;60.61
9695;BME280;4690;52.422;13.486;2023-03-25T07:40:32;100004.50;;;13.84;65.66
9695;BME280;4690;52.422;13.486;2023-03-25T07:42:58;100011.78;;;14.10;65.44
9695;BME280;4690;52.422;13.486;2023-03-25T07:45:23;99997.72;;;14.70;63.13
9695;BME280;4690;52.422;13.486;2023-03-25T07:47:50;100001.72;;;14.42;61.95
9695;BME280;4690;52.422;13.486;2023-03-25T07:50:20;100005.41;;;14.78;60.89
9695;BME280;4690;52.422;13.486;2023-03-25T07:52:46;99995.25;;;14.94;59.84
9695;BME280;4690;52.422;13.486;2023-03-25T07:55:13;99998.00;;;14.94;58.94
9695;BME280;4690;52.422;13.486;2023-03-25T07:57:40;100005.19;;;15.25;58.52
9695;BME280;4690;52.422;13.486;2023-03-25T08:00:09;99999.38;;;14.96;58.50
9695;BME280;4690;52.422;13.486;2023-03-25T08:02:36;100006.81;;;14.86;58.97
9695;BME280;4690;52.422;13.486;2023-03-25T08:05:02;100004.50;;;14.42;60.04
9695;BME280;4690;52.422;13.486;2023-03-25T08:07:28;99994.75;;;14.13;61.14
9695;BME280;4690;52.422;13.486;2023-03-25T08:09:54;100000.75;;;14.10;61.52
9695;BME280;4690;52.422;13.486;2023-03-25T08:12:19;100009.69;;;13.75;62.23
9695;BME280;4690;52.422;13.486;2023-03-25T08:14:45;100014.53;;;13.58;64.16
9695;BME280;4690;52.422;13.486;2023-03-25T08:17:11;100009.34;;;13.66;62.46
9695;BME280;4690;52.422;13.486;2023-03-25T08:19:37;100005.94;;;13.49;63.11
9695;BME280;4690;52.422;13.486;2023-03-25T08:22:03;99993.56;;;13.57;62.61
9695;BME280;4690;52.422;13.486;2023-03-25T08:24:29;99995.47;;;13.51;63.67
9695;BME280;4690;52.422;13.486;2023-03-25T08:26:57;99998.81;;;13.21;63.84
9695;BME280;4690;52.422;13.486;2023-03-25T08:29:26;99997.47;;;13.61;63.57
9695;BME280;4690;52.422;13.486;2023-03-25T08:31:52;99993.53;;;13.47;62.96
9695;BME280;4690;52.422;13.486;2023-03-25T08:34:20;99989.53;;;13.27;62.77
9695;BME280;4690;52.422;13.486;2023-03-25T08:36:46;100007.84;;;13.16;64.71
9695;BME280;4690;52.422;13.486;2023-03-25T08:39:13;99992.38;;;13.10;64.92
9695;BME280;4690;52.422;13.486;2023-03-25T08:41:43;100001.13;;;13.02;62.78
9695;BME280;4690;52.422;13.486;2023-03-25T08:44:10;99999.81;;;13.42;62.16
9695;BME280;4690;52.422;13.486;2023-03-25T08:46:36;100000.88;;;13.36;62.82
9695;BME280;4690;52.422;13.486;2023-03-25T08:49:04;99997.31;;;13.78;61.33
9695;BME280;4690;52.422;13.486;2023-03-25T08:51:31;99994.03;;;13.86;60.55
9695;BME280;4690;52.422;13.486;2023-03-25T08:53:56;100000.34;;;13.81;60.66
9695;BME280;4690;52.422;13.486;2023-03-25T08:56:22;99990.28;;;14.07;60.54
9695;BME280;4690;52.422;13.486;2023-03-25T08:58:48;99988.28;;;13.93;60.85
9695;BME280;4690;52.422;13.486;2023-03-25T09:01:14;99991.69;;;13.62;61.12
9695;BME280;4690;52.422;13.486;2023-03-25T09:03:40;100000.38;;;13.44;62.47
9695;BME280;4690;52.422;13.486;2023-03-25T09:06:07;99996.63;;;13.55;62.48
9695;BME280;4690;52.422;13.486;2023-03-25T09:08:35;99993.91;;;13.60;61.32
9695;BME280;4690;52.422;13.486;2023-03-25T09:11:04;99994.44;;;13.25;60.11
9695;BME280;4690;52.422;13.486;2023-03-25T09:13:30;99998.13;;;13.04;61.07
9695;BME280;4690;52.422;13.486;2023-03-25T09:15:57;99988.50;;;13.38;60.78
9695;BME280;4690;52.422;13.486;2023-03-25T09:18:23;99990.94;;;13.30;60.80
9695;BME280;4690;52.422;13.486;2023-03-25T09:20:49;99994.72;;;13.23;59.44
9695;BME280;4690;52.422;13.486;2023-03-25T09:23:17;100001.28;;;13.22;60.63
9695;BME280;4690;52.422;13.486;2023-03-25T09:25:42;100005.91;;;13.17;59.82
9695;BME280;4690;52.422;13.486;2023-03-25T09:28:08;99989.28;;;13.01;59.83
9695;BME280;4690;52.422;13.486;2023-03-25T09:30:34;99995.28;;;12.44;60.77
9695;BME280;4690;52.422;13.486;2023-03-25T09:33:00;99997.81;;;12.73;60.13
9695;BME280;4690;52.422;13.486;2023-03-25T09:35:27;100000.03;;;12.49;61.06
9695;BME280;4690;52.422;13.486;2023-03-25T09:37:52;99996.66;;;12.69;60.65
9695;BME280;4690;52.422;13.486;2023-03-25T09:40:20;100000.34;;;12.79;60.50
9695;BME280;4690;52.422;13.486;2023-03-25T09:45:45;100000.81;;;12.98;60.24
9695;BME280;4690;52.422;13.486;2023-03-25T09:48:39;100007.78;;;12.79;60.05
9695;BME280;4690;52.422;13.486;2023-03-25T09:51:26;100008.38;;;12.86;60.02
9695;BME280;4690;52.422;13.486;2023-03-25T09:54:15;100015.16;;;12.73;60.17
9695;BME280;4690;52.422;13.486;2023-03-25T09:56:43;100007.25;;;12.82;59.07
9695;BME280;4690;52.422;13.486;2023-03-25T09:59:13;100002.97;;;13.23;59.89
9695;BME280;4690;52.422;13.486;2023-03-25T10:11:05;100005.28;;;13.79;55.03
9695;BME280;4690;52.422;13.486;2023-03-25T10:19:44;99987.41;;;14.45;54.87
9695;BME280;4690;52.422;13.486;2023-03-25T10:23:02;99993.41;;;13.68;55.89
9695;BME280;4690;52.422;13.486;2023-03-25T10:25:28;99995.16;;;13.90;56.37
9695;BME280;4690;52.422;13.486;2023-03-25T10:27:58;99996.84;;;13.91;55.42
9695;BME280;4690;52.422;13.486;2023-03-25T10:30:31;100001.50;;;13.85;54.93
9695;BME280;4690;52.422;13.486;2023-03-25T10:35:48;99996.94;;;14.17;53.73
9695;BME280;4690;52.422;13.486;2023-03-25T10:38:18;99989.97;;;13.99;53.62
9695;BME280;4690;52.422;13.486;2023-03-25T10:40:50;99987.22;;;13.99;52.84
9695;BME280;4690;52.422;13.486;2023-03-25T10:43:30;99992.91;;;14.40;50.75
9695;BME280;4690;52.422;13.486;2023-03-25T10:46:13;99979.22;;;14.86;50.07
9695;BME280;4690;52.422;13.486;2023-03-25T10:48:44;99988.34;;;15.27;48.57
9695;BME280;4690;52.422;13.486;2023-03-25T10:51:15;99980.06;;;15.17;48.24
9695;BME280;4690;52.422;13.486;2023-03-25T10:53:45;99975.66;;;15.36;48.88
9695;BME280;4690;52.422;13.486;2023-03-25T10:56:20;99975.66;;;15.41;47.76
9695;BME280;4690;52.422;13.486;2023-03-25T10:58:52;99980.50;;;16.06;46.56
9695;BME280;4690;52.422;13.486;2023-03-25T11:01:26;99977.78;;;16.95;44.98
9695;BME280;4690;52.422;13.486;2023-03-25T11:03:57;99979.25;;;17.51;42.63
9695;BME280;4690;52.422;13.486;2023-03-25T11:06:36;99978.25;;;17.41;41.81
9695;BME280;4690;52.422;13.486;2023-03-25T11:11:35;99964.00;;;16.45;44.40
9695;BME280;4690;52.422;13.486;2023-03-25T11:14:02;99969.69;;;16.14;45.49
9695;BME280;4690;52.422;13.486;2023-03-25T11:17:01;99970.44;;;16.30;46.89
9695;BME280;4690;52.422;13.486;2023-03-25T11:19:58;99961.69;;;16.63;44.92
9695;BME280;4690;52.422;13.486;2023-03-25T11:22:34;99958.53;;;16.85;45.01
9695;BME280;4690;52.422;13.486;2023-03-25T11:25:18;99973.06;;;16.56;43.95
9695;BME280;4690;52.422;13.486;2023-03-25T11:27:55;99966.22;;;16.43;44.30
9695;BME280;4690;52.422;13.486;2023-03-25T11:30:24;99976.25;;;16.29;45.12
9695;BME280;4690;52.422;13.486;2023-03-25T11:33:12;99954.94;;;16.29;45.94
9695;BME280;4690;52.422;13.486;2023-03-25T11:35:42;99953.75;;;16.46;46.54
9695;BME280;4690;52.422;13.486;2023-03-25T11:38:21;99948.50;;;16.89;46.66
9695;BME280;4690;52.422;13.486;2023-03-25T11:40:54;99940.47;;;17.27;44.50
9695;BME280;4690;52.422;13.486;2023-03-25T11:43:33;99952.00;;;17.05;45.45
9695;BME280;4690;52.422;13.486;2023-03-25T11:46:13;99942.44;;;16.47;46.12
9695;BME280;4690;52.422;13.486;2023-03-25T11:48:42;99945.38;;;16.11;46.70
9695;BME280;4690;52.422;13.486;2023-03-25T11:51:31;99951.91;;;15.40;50.57
9695;BME280;4690;52.422;13.486;2023-03-25T11:54:02;99967.78;;;14.31;53.38
9695;BME280;4690;52.422;13.486;2023-03-25T11:56:37;99959.94;;;13.97;58.73
9695;BME280;4690;52.422;13.486;2023-03-25T11:59:15;99958.03;;;14.03;58.88
9695;BME280;4690;52.422;13.486;2023-03-25T12:01:47;99953.56;;;13.86;56.90
9695;BME280;4690;52.422;13.486;2023-03-25T12:04:23;99933.97;;;13.78;56.38
9695;BME280;4690;52.422;13.486;2023-03-25T12:07:22;99945.56;;;13.90;55.31
9695;BME280;4690;52.422;13.486;2023-03-25T12:10:05;99934.25;;;13.81;55.35
9695;BME280;4690;52.422;13.486;2023-03-25T12:12:51;99941.88;;;13.64;55.09
9695;BME280;4690;52.422;13.486;2023-03-25T12:25:04;99919.91;;;14.78;51.52
9695;BME280;4690;52.422;13.486;2023-03-25T12:36:26;99910.81;;;15.03;50.16
9695;BME280;4690;52.422;13.486;2023-03-25T12:42:15;99921.19;;;14.29;61.78
9695;BME280;4690;52.422;13.486;2023-03-25T12:59:12;99886.78;;;16.54;54.46
9695;BME280;4690;52.422;13.486;2023-03-25T13:07:27;99866.66;;;16.43;48.17
9695;BME280;4690;52.422;13.486;2023-03-25T13:10:19;99863.09;;;16.38;48.18
9695;BME280;4690;52.422;13.486;2023-03-25T13:12:53;99878.56;;;16.39;49.36
9695;BME280;4690;52.422;13.486;2023-03-25T13:15:31;99861.22;;;15.83;49.17
9695;BME280;4690;52.422;13.486;2023-03-25T13:18:55;99881.56;;;15.02;51.25
9695;BME280;4690;52.422;13.486;2023-03-25T13:21:59;99865.31;;;14.65;53.41
9695;BME280;4690;52.422;13.486;2023-03-25T13:24:45;99868.09;;;14.65;53.14
9695;BME280;4690;52.422;13.486;2023-03-25T13:27:14;99869.41;;;15.08;51.61
9695;BME280;4690;52.422;13.486;2023-03-25T13:29:47;99879.59;;;15.23;51.29
9695;BME280;4690;52.422;13.486;2023-03-25T13:32:31;99878.00;;;15.01;50.02
9695;BME280;4690;52.422;13.486;2023-03-25T13:35:06;99876.06;;;14.66;50.93
9695;BME280;4690;52.422;13.486;2023-03-25T13:37:44;99887.63;;;14.84;51.29
9695;BME280;4690;52.422;13.486;2023-03-25T13:43:10;99916.31;;;13.68;63.75
9695;BME280;4690;52.422;13.486;2023-03-25T13:48:46;99913.84;;;12.33;72.75
9695;BME280;4690;52.422;13.486;2023-03-25T13:51:13;99919.84;;;12.03;73.88
9695;BME280;4690;52.422;13.486;2023-03-25T13:53:45;99927.88;;;12.09;74.72
9695;BME280;4690;52.422;13.486;2023-03-25T14:03:40;99971.25;;;10.34;80.02
9695;BME280;4690;52.422;13.486;2023-03-25T14:09:43;99949.09;;;10.23;84.51
9695;BME280;4690;52.422;13.486;2023-03-25T14:12:19;99948.56;;;10.09;84.76
9695;BME280;4690;52.422;13.486;2023-03-25T14:15:01;99941.47;;;9.97;86.65
9695;BME280;4690;52.422;13.486;2023-03-25T14:17:29;99936.50;;;10.22;87.53
9695;BME280;4690;52.422;13.486;2023-03-25T14:19:58;99941.78;;;10.41;86.06
9695;BME280;4690;52.422;13.486;2023-03-25T14:22:30;99931.16;;;10.44;84.24
9695;BME280;4690;52.422;13.486;2023-03-25T14:24:59;99938.91;;;10.47;84.94
9695;BME280;4690;52.422;13.486;2023-03-25T14:27:35;99935.03;;;10.31;84.57
9695;BME280;4690;52.422;13.486;2023-03-25T14:32:36;99932.78;;;10.74;84.44
9695;BME280;4690;52.422;13.486;2023-03-25T14:49:08;99918.59;;;11.50;83.47
9695;BME280;4690;52.422;13.486;2023-03-25T14:54:18;99911.06;;;11.62;81.07
9695;BME280;4690;52.422;13.486;2023-03-25T14:57:07;99899.13;;;11.73;81.43
9695;BME280;4690;52.422;13.486;2023-03-25T14:59:48;99895.66;;;12.00;77.79
9695;BME280;4690;52.422;13.486;2023-03-25T15:02:21;99900.63;;;12.30;74.86
9695;BME280;4690;52.422;13.486;2023-03-25T15:04:58;99891.25;;;12.26;74.17
9695;BME280;4690;52.422;13.486;2023-03-25T15:13:27;99884.13;;;12.57;71.64
9695;BME280;4690;52.422;13.486;2023-03-25T15:16:05;99880.78;;;12.82;69.48
9695;BME280;4690;52.422;13.486;2023-03-25T15:26:37;99880.91;;;12.65;67.99
9695;BME280;4690;52.422;13.486;2023-03-25T15:29:22;99882.34;;;13.10;66.20
9695;BME280;4690;52.422;13.486;2023-03-25T15:32:34;99883.41;;;13.41;64.43
9695;BME280;4690;52.422;13.486;2023-03-25T15:48:52;99874.84;;;14.06;58.94
9695;BME280;4690;52.422;13.486;2023-03-25T15:54:53;99861.59;;;13.93;59.45
9695;BME280;4690;52.422;13.486;2023-03-25T15:57:28;99871.91;;;13.60;60.45
9695;BME280;4690;52.422;13.486;2023-03-25T16:00:00;99876.31;;;13.13;61.63
9695;BME280;4690;52.422;13.486;2023-03-25T16:02:34;99869.44;;;13.11;62.33
9695;BME280;4690;52.422;13.486;2023-03-25T16:05:04;99878.41;;;12.96;62.58
9695;BME280;4690;52.422;13.486;2023-03-25T16:07:33;99868.34;;;12.74;63.12
9695;BME280;4690;52.422;13.486;2023-03-25T16:10:28;99863.72;;;12.48;64.83
9695;BME280;4690;52.422;13.486;2023-03-25T16:12:56;99866.84;;;12.29;65.81
9695;BME280;4690;52.422;13.486;2023-03-25T16:15:27;99880.50;;;12.19;66.31
9695;BME280;4690;52.422;13.486;2023-03-25T16:17:56;99880.44;;;12.14;67.11
9695;BME280;4690;52.422;13.486;2023-03-25T16:20:25;99880.44;;;12.14;67.26
9695;BME280;4690;52.422;13.486;2023-03-25T16:22:55;99884.25;;;12.13;66.63